Sebastian, FL

4:58 PM EDT on October 01, 2016 (GMT -0400)
OZWORLD - *Sebastian Highlands* - | | Change Station

Elev 23 ft 27.80 °N, 80.48 °W | Updated 3 seconds ago

Clear
Clear
84.3 °F
Feels Like 89 °F
N
0.0
Wind Variable Wind from SSE
Gusts 0.0 mph

Today
High -- | Low -- °F
--% Chance of Precip.
Yesterday
High -- | Low -- °F
Precip. -- in
Pressure 29.98 in
Visibility 10.0 miles
Clouds Clear
Heat Index 89 °F
Dew Point 71 °F
Humidity 64%
Rainfall in
Snow Depth Not available.
7:14 AM 7:07 PM
New Moon, 1% visible
METAR KVRB 012053Z AUTO 13006KT 10SM CLR 29/22 A2998 RMK AO2 SLP152 T02940217 56013
Pressure 29.98 in
Visibility 10.0 miles
Clouds Clear
Heat Index 89 °F
Dew Point 71 °F
Humidity 64%
Rainfall in
Snow Depth Not available.
7:14 AM 7:07 PM
New Moon, 1% visible
METAR KVRB 012053Z AUTO 13006KT 10SM CLR 29/22 A2998 RMK AO2 SLP152 T02940217 56013

10-Day Weather Forecast

Almanac

Astronomy

Oct. 01, 2016 Rise Set
Actual Time
Civil Twilight
Nautical Twilight
Astronomical Twilight
Moon
Length of Visible Light
Length of Day
Tomorrow will be .
, % of the Moon is Illuminated

Today's Extremes

State Highs State Lows

Community

WunderPhotos

Upload Photos

1,943,017 photos uploaded!

WunderBlog® & News

Nearby

Air Quality

  Air Quality AQ Index Pollutant
Not available.

Snow Depth

Station Depth Elevation

Earthquake Activity

City Distance Mag. Time & Date
Minimum magnitude displayed is 2.5.

Coastal Water Temperatures

Place Temperature

Stations

Nearby Weather Stations

Station Location Temp. Windchill Dew Point Humidity Wind Precip. Elev Updated Type
                   

Watches & Warnings

There are currently no watches in effect.